Latest Weather Observations for North Head

IDN60801

Issued at 1:23 pm EDT Thursday 20 January 2022 (issued every 10 minutes, with the page automatically refreshed every 10 minutes)

About weather observations | Map of weather stations | Latest weather observations for NSW | Other Formats
Station Details ID: 066197 Name: NORTH HEAD Lat: -33.82 Lon: 151.30 Height: 90.0 m
Data from the previous 72 hours. | See also: Recent months at North Head
Date/Time
EDT
Temp
°C
App
Temp
°C
Dew
Point
°C
Rel
Hum
%
Delta-T
°C
Wind Press
QNH
hPa
Press
MSL
hPa
Rain since
9am
mm
Dir  Spd
km/h
Gust
km/h
Spd
kts
Gust
kts
20/01:00pm - - - - - SSE 30 46 16 25 - - -
20/12:30pm - - - - - SSE 30 44 16 24 - - -
20/12:00pm - - - - - SE 17 33 9 18 - - -
20/11:48am - - - - - SSE 28 46 15 25 - - -
20/11:30am - - - - - SSE 24 39 13 21 - - -
20/11:12am - - - - - SSE 33 54 18 29 - - -
20/11:00am - - - - - SSE 32 43 17 23 - - -
20/10:30am - - - - - SSE 28 39 15 21 - - -
20/10:00am - - - - - SSE 28 39 15 21 - - -
20/09:41am - - - - - SSE 33 52 18 28 - - -
20/09:30am - - - - - SSE 39 52 21 28 - - -
20/09:06am - - - - - SSE 37 57 20 31 - - -
20/09:00am - - - - - SSE 33 46 18 25 - - -
20/08:30am - - - - - SSE 39 52 21 28 - - -
20/08:00am - - - - - SE 33 52 18 28 - - -
20/07:56am - - - - - SE 33 52 18 28 - - -
20/07:30am - - - - - SE 22 37 12 20 - - -
20/07:12am - - - - - SE 30 48 16 26 - - -
20/07:00am - - - - - SSE 32 46 17 25 - - -
20/06:43am - - - - - SSE 32 52 17 28 - - -
20/06:30am - - - - - SSE 33 48 18 26 - - -
20/06:00am - - - - - SSE 33 44 18 24 - - -
20/05:30am - - - - - SSE 35 48 19 26 - - -
20/05:01am - - - - - SSE 41 61 22 33 - - -
20/05:00am - - - - - SSE 39 56 21 30 - - -
20/04:30am - - - - - SSE 37 50 20 27 - - -
20/04:00am - - - - - SSE 39 56 21 30 - - -
20/03:30am - - - - - SSE 35 54 19 29 - - -
20/03:00am - - - - - SSE 30 43 16 23 - - -
20/02:42am - - - - - SSE 39 57 21 31 - - -
20/02:30am - - - - - SSE 41 56 22 30 - - -
20/02:12am - - - - - SSE 35 54 19 29 - - -
20/02:00am - - - - - SSE 28 37 15 20 - - -
20/01:30am - - - - - SSE 26 43 14 23 - - -
20/01:09am - - - - - SSE 41 69 22 37 - - -
20/01:00am - - - - - SSE 39 54 21 29 - - -
20/12:39am - - - - - SSE 35 54 19 29 - - -
20/12:30am - - - - - SSE 37 52 20 28 - - -
20/12:00am - - - - - SSE 35 48 19 26 - - -
 
Date/Time
EDT
Temp
°C
App
Temp
°C
Dew
Point
°C
Rel
Hum
%
Delta-T
°C
Wind Press
QNH
hPa
Press
MSL
hPa
Rain since
9am
mm
Dir  Spd
km/h
Gust
km/h
Spd
kts
Gust
kts
19/11:30pm - - - - - SSE 32 44 17 24 - - -
19/11:04pm - - - - - SSE 39 59 21 32 - - -
19/11:00pm - - - - - SSE 41 59 22 32 - - -
19/10:51pm - - - - - SSE 37 57 20 31 - - -
19/10:30pm - - - - - SSE 37 46 20 25 - - -
19/10:00pm - - - - - SSE 37 52 20 28 - - -
19/09:30pm - - - - - SSE 39 50 21 27 - - -
19/09:12pm - - - - - SSE 37 57 20 31 - - -
19/09:00pm - - - - - SSE 37 52 20 28 - - -
19/08:30pm - - - - - SSE 35 48 19 26 - - -
19/08:11pm - - - - - SSE 35 56 19 30 - - -
19/08:00pm - - - - - SSE 37 54 20 29 - - -
19/07:39pm - - - - - SSE 37 57 20 31 - - -
19/07:30pm - - - - - SSE 37 54 20 29 - - -
19/07:08pm - - - - - SSE 32 50 17 27 - - -
19/07:00pm - - - - - SSE 33 46 18 25 - - -
19/06:30pm - - - - - SSE 32 43 17 23 - - -
19/06:02pm - - - - - SSE 33 52 18 28 - - -
19/06:00pm - - - - - SSE 35 52 19 28 - - -
19/05:30pm - - - - - SSE 33 44 18 24 - - -
19/05:00pm - - - - - SSE 35 50 19 27 - - -
19/04:30pm - - - - - SSE 37 54 20 29 - - -
19/04:00pm - - - - - SSE 35 48 19 26 - - -
19/03:30pm - - - - - SSE 30 43 16 23 - - -
19/03:00pm - - - - - SSE 33 43 18 23 - - -
19/02:30pm - - - - - SSE 33 46 18 25 - - -
19/02:00pm - - - - - SSE 32 43 17 23 - - -
19/01:30pm - - - - - SSE 32 44 17 24 - - -
19/01:00pm - - - - - SSE 32 43 17 23 - - -
19/12:30pm - - - - - SSE 32 43 17 23 - - -
19/12:00pm - - - - - SSE 33 46 18 25 - - -
19/11:30am - - - - - SSE 33 44 18 24 - - -
19/11:00am - - - - - S 32 43 17 23 - - -
19/10:30am - - - - - SSE 35 50 19 27 - - -
19/10:04am - - - - - S 28 48 15 26 - - -
19/10:00am - - - - - S 26 43 14 23 - - -
19/09:30am - - - - - SSW 22 33 12 18 - - -
19/09:00am - - - - - SSW 20 37 11 20 - - -
19/08:30am - - - - - SSW 26 39 14 21 - - -
19/08:00am - - - - - SSW 24 39 13 21 - - -
19/07:30am - - - - - SSW 20 39 11 21 - - -
19/07:00am - - - - - SSW 22 41 12 22 - - -
19/06:30am - - - - - SSW 22 43 12 23 - - -
19/06:02am - - - - - S 28 46 15 25 - - -
19/06:00am - - - - - S 30 46 16 25 - - -
19/05:36am - - - - - S 33 54 18 29 - - -
19/05:30am - - - - - S 35 54 19 29 - - -
19/05:00am - - - - - S 37 57 20 31 - - -
19/04:53am - - - - - S 37 57 20 31 - - -
19/04:30am - - - - - S 35 52 19 28 - - -
19/04:29am - - - - - S 33 52 18 28 - - -
19/04:00am - - - - - S 35 50 19 27 - - -
19/03:30am - - - - - S 35 48 19 26 - - -
19/03:04am - - - - - S 35 57 19 31 - - -
19/03:00am - - - - - S 35 50 19 27 - - -
19/02:30am - - - - - S 32 46 17 25 - - -
19/02:00am - - - - - S 35 48 19 26 - - -
19/01:30am - - - - - S 35 50 19 27 - - -
19/01:00am - - - - - S 32 43 17 23 - - -
19/12:30am - - - - - SSE 33 50 18 27 - - -
19/12:00am - - - - - S 33 44 18 24 - - -
 
Date/Time
EDT
Temp
°C
App
Temp
°C
Dew
Point
°C
Rel
Hum
%
Delta-T
°C
Wind Press
QNH
hPa
Press
MSL
hPa
Rain since
9am
mm
Dir  Spd
km/h
Gust
km/h
Spd
kts
Gust
kts
18/11:30pm - - - - - S 32 43 17 23 - - -
18/11:00pm - - - - - S 28 41 15 22 - - -
18/10:30pm - - - - - S 26 41 14 22 - - -
18/10:00pm - - - - - S 26 37 14 20 - - -
18/09:30pm - - - - - S 30 41 16 22 - - -
18/09:00pm - - - - - SSE 30 39 16 21 - - -
18/08:30pm - - - - - S 26 33 14 18 - - -
18/08:00pm - - - - - SSE 26 37 14 20 - - -
18/07:30pm - - - - - SSE 24 35 13 19 - - -
18/07:00pm - - - - - SSE 24 33 13 18 - - -
18/06:30pm - - - - - S 20 32 11 17 - - -
18/06:00pm - - - - - S 26 39 14 21 - - -
18/05:30pm - - - - - S 22 35 12 19 - - -
18/05:00pm - - - - - S 22 35 12 19 - - -
18/04:30pm - - - - - S 20 35 11 19 - - -
18/04:00pm - - - - - S 20 39 11 21 - - -
18/03:30pm - - - - - S 24 37 13 20 - - -
18/03:00pm - - - - - S 20 37 11 20 - - -
18/02:30pm - - - - - S 17 28 9 15 - - -
18/02:00pm - - - - - S 15 24 8 13 - - -
18/01:30pm - - - - - SSW 15 24 8 13 - - -
18/01:00pm - - - - - SSW 13 20 7 11 - - -
18/12:30pm - - - - - SSW 15 24 8 13 - - -
18/12:00pm - - - - - SW 17 28 9 15 - - -
18/11:30am - - - - - SSW 17 26 9 14 - - -
18/11:00am - - - - - SSW 15 22 8 12 - - -
18/10:30am - - - - - SW 13 26 7 14 - - -
18/10:00am - - - - - SW 15 24 8 13 - - -
18/09:30am - - - - - SSW 13 22 7 12 - - -
18/09:00am - - - - - SSW 19 35 10 19 - - -
18/08:30am - - - - - SSW 20 32 11 17 - - -
18/08:00am - - - - - SSW 20 33 11 18 - - -
18/07:30am - - - - - SSW 24 39 13 21 - - -
18/07:00am - - - - - SSW 22 35 12 19 - - -
18/06:30am - - - - - SSW 20 35 11 19 - - -
18/06:00am - - - - - SSW 17 26 9 14 - - -
18/05:30am - - - - - SSW 17 28 9 15 - - -
18/05:00am - - - - - SSW 11 17 6 9 - - -
18/04:30am - - - - - SW 9 15 5 8 - - -
18/04:00am - - - - - WSW 11 13 6 7 - - -
18/03:30am - - - - - WSW 9 13 5 7 - - -
18/03:00am - - - - - WSW 11 13 6 7 - - -
18/02:30am - - - - - WNW 11 13 6 7 - - -
18/02:00am - - - - - WNW 9 11 5 6 - - -
18/01:30am - - - - - W 4 6 2 3 - - -
18/01:00am - - - - - NW 7 7 4 4 - - -
18/12:30am - - - - - NNW 6 7 3 4 - - -
18/12:00am - - - - - NNW 4 6 2 3 - - -
 
Date/Time
EDT
Temp
°C
App
Temp
°C
Dew
Point
°C
Rel
Hum
%
Delta-T
°C
Wind Press
QNH
hPa
Press
MSL
hPa
Rain since
9am
mm
Dir  Spd
km/h
Gust
km/h
Spd
kts
Gust
kts
17/11:30pm - - - - - N 4 6 2 3 - - -
17/11:00pm - - - - - NE 6 6 3 3 - - -
17/10:30pm - - - - - N 6 7 3 4 - - -
17/10:00pm - - - - - N 7 9 4 5 - - -
17/09:30pm - - - - - N 9 13 5 7 - - -
17/09:00pm - - - - - N 13 17 7 9 - - -
17/08:30pm - - - - - N 13 17 7 9 - - -
17/08:00pm - - - - - N 13 17 7 9 - - -
17/07:30pm - - - - - NNE 15 22 8 12 - - -
17/07:00pm - - - - - NNE 15 20 8 11 - - -
17/06:30pm - - - - - NE 15 22 8 12 - - -
17/06:00pm - - - - - NE 17 24 9 13 - - -
17/05:30pm - - - - - NE 17 24 9 13 - - -
17/05:00pm - - - - - NE 17 24 9 13 - - -
17/04:30pm - - - - - NE 20 26 11 14 - - -
17/04:00pm - - - - - NE 17 24 9 13 - - -
17/03:30pm - - - - - ENE 17 22 9 12 - - -
17/03:00pm - - - - - ENE 19 26 10 14 - - -
17/02:30pm - - - - - ENE 15 22 8 12 - - -
17/02:00pm - - - - - ENE 15 24 8 13 - - -
17/01:30pm - - - - - ENE 17 22 9 12 - - -

Other formats

Comma delimited format used in spreadsheet applications
http://www.bom.gov.au/fwo/IDN60801/IDN60801.95768.axf

JavaScript Object Notation format (JSON) in row-major order
http://www.bom.gov.au/fwo/IDN60801/IDN60801.95768.json

Data quality

Most of these data are generated automatically and are frequently updated. Quality checks on data are not normally performed. It is possible for incorrect values to appear. Refer to information at About Latest Weather Observations and please check the disclaimer before using these data.